Time;durP1;ratioP1;P1;durP2;ratioP2;P2;SDS_P1;SDS_P2;PMS_P1;PMS_P2;Temp;Humidity;BMP_temperature;BMP_pressure;BME280_temperature;BME280_humidity;BME280_pressure;Samples;Min_cycle;Max_cycle;Signal;HPM_P1;HPM_P2
2022/05/05 00:01:42;;;;;;;32.83;27.20;;;17.40;75.50;;;;;;5015063;28;20387;-64
2022/05/05 00:04:09;;;;;;;32.78;27.58;;;17.40;75.60;;;;;;5015744;28;20038;-65
2022/05/05 00:06:36;;;;;;;31.38;26.90;;;17.40;76.30;;;;;;5015987;28;20026;-65
2022/05/05 00:09:02;;;;;;;30.35;26.00;;;17.40;75.60;;;;;;5015770;28;20022;-65
2022/05/05 00:14:23;;;;;;;30.10;26.23;;;17.40;75.70;;;;;;5015815;28;20538;-64
2022/05/05 00:16:50;;;;;;;28.63;25.33;;;17.40;75.70;;;;;;5015405;28;20028;-65
2022/05/05 00:19:16;;;;;;;27.85;24.45;;;17.30;75.70;;;;;;5015819;28;20056;-65
2022/05/05 00:21:42;;;;;;;28.42;25.38;;;17.30;75.70;;;;;;5015818;28;20491;-65
2022/05/05 00:24:08;;;;;;;30.13;24.52;;;17.30;75.70;;;;;;5015536;28;20088;-64
2022/05/05 00:26:34;;;;;;;29.45;23.45;;;17.30;75.50;;;;;;5015465;28;20121;-65
2022/05/05 00:29:00;;;;;;;27.42;22.27;;;17.30;75.50;;;;;;5015353;28;20117;-64
2022/05/05 00:31:26;;;;;;;24.77;22.10;;;17.20;75.30;;;;;;5015478;28;20105;-64
2022/05/05 00:33:51;;;;;;;24.58;21.95;;;17.30;75.20;;;;;;5015312;28;20088;-64
2022/05/05 00:36:17;;;;;;;29.00;20.23;;;17.30;74.70;;;;;;5015444;28;20018;-65
2022/05/05 00:38:43;;;;;;;25.13;20.80;;;17.30;74.70;;;;;;5015389;28;20041;-64
2022/05/05 00:41:09;;;;;;;23.17;20.27;;;17.30;74.60;;;;;;5015126;28;20022;-64
2022/05/05 00:43:35;;;;;;;21.55;19.33;;;17.20;74.60;;;;;;5015413;28;20034;-65
2022/05/05 00:46:02;;;;;;;23.17;19.42;;;17.20;74.70;;;;;;5014865;28;20026;-65
2022/05/05 00:48:27;;;;;;;23.83;20.38;;;17.20;74.70;;;;;;5015388;28;20407;-65
2022/05/05 00:50:54;;;;;;;21.70;19.38;;;17.20;74.90;;;;;;5015026;28;20030;-65
2022/05/05 00:53:20;;;;;;;25.73;20.45;;;17.20;74.90;;;;;;5015231;28;20018;-64
2022/05/05 00:55:47;;;;;;;24.77;20.40;;;17.10;75.10;;;;;;5014656;28;20379;-63
2022/05/05 00:58:14;;;;;;;26.90;21.55;;;17.20;74.90;;;;;;5014963;28;20030;-65
2022/05/05 01:00:40;;;;;;;25.95;20.55;;;17.20;75.00;;;;;;5014797;28;20033;-65
2022/05/05 01:03:08;;;;;;;24.20;21.08;;;17.20;75.00;;;;;;5014815;28;20018;-61
2022/05/05 01:05:36;;;;;;;24.33;20.67;;;17.20;75.10;;;;;;5014980;28;20029;-61
2022/05/05 01:08:02;;;;;;;25.63;20.90;;;17.20;75.10;;;;;;5015270;28;20459;-62
2022/05/05 01:10:28;;;;;;;22.60;19.83;;;17.10;75.10;;;;;;5014989;28;20055;-60
2022/05/05 01:12:54;;;;;;;24.05;20.50;;;17.10;75.10;;;;;;5014529;28;20022;-62
2022/05/05 01:15:20;;;;;;;26.40;19.70;;;17.10;75.00;;;;;;5014586;28;20026;-60
2022/05/05 01:17:46;;;;;;;25.38;21.52;;;17.10;75.10;;;;;;5014652;28;20029;-62
2022/05/05 01:20:19;;;;;;;23.15;20.45;;;17.10;75.00;;;;;;5014416;28;20395;-64
2022/05/05 01:22:45;;;;;;;24.48;20.75;;;17.10;75.20;;;;;;5014557;28;20559;-59
2022/05/05 01:28:14;;;;;;;25.17;19.65;;;17.10;75.30;;;;;;5014594;28;20109;-62
2022/05/05 01:30:42;;;;;;;22.23;19.65;;;17.10;75.40;;;;;;5014205;28;20030;-63
2022/05/05 01:33:11;;;;;;;26.05;21.33;;;17.10;75.30;;;;;;5014463;28;20140;-65
2022/05/05 01:35:37;;;;;;;24.90;20.20;;;17.10;75.30;;;;;;5014297;28;20038;-65
2022/05/05 01:38:03;;;;;;;24.00;19.85;;;17.10;75.20;;;;;;5007043;28;20033;-62
2022/05/05 01:40:29;;;;;;;25.67;20.90;;;17.00;75.40;;;;;;5014285;28;20038;-65
2022/05/05 01:42:55;;;;;;;23.17;20.67;;;17.10;75.60;;;;;;5013435;28;20022;-65
2022/05/05 01:45:20;;;;;;;23.17;19.20;;;17.00;75.70;;;;;;5013709;28;20040;-65
2022/05/05 01:47:46;;;;;;;25.85;19.83;;;17.00;75.70;;;;;;5014407;28;20049;-64
2022/05/05 01:50:11;;;;;;;21.95;18.33;;;17.00;75.60;;;;;;5013957;28;20069;-65
2022/05/05 01:52:37;;;;;;;23.80;18.83;;;17.00;75.30;;;;;;5013866;28;20042;-64
2022/05/05 01:55:04;;;;;;;23.17;19.25;;;17.00;75.30;;;;;;5013814;28;20101;-64
2022/05/05 01:57:29;;;;;;;23.80;19.60;;;17.00;75.40;;;;;;5014102;28;20034;-65
2022/05/05 01:59:55;;;;;;;24.45;19.58;;;17.00;75.90;;;;;;5013609;28;20099;-65
2022/05/05 02:02:20;;;;;;;27.23;19.45;;;17.00;77.30;;;;;;5014045;28;20022;-63
2022/05/05 02:04:46;;;;;;;21.40;19.15;;;17.00;78.40;;;;;;5013870;28;20021;-65
2022/05/05 02:07:11;;;;;;;25.13;19.88;;;17.00;79.00;;;;;;5013641;28;20040;-65
2022/05/05 02:09:37;;;;;;;21.80;19.58;;;17.00;79.40;;;;;;5012959;28;20570;-64
2022/05/05 02:12:03;;;;;;;20.90;18.70;;;17.00;79.90;;;;;;5013521;28;20072;-62
2022/05/05 02:14:29;;;;;;;23.73;20.30;;;17.00;80.20;;;;;;5013492;28;20061;-64
2022/05/05 02:16:54;;;;;;;27.02;20.45;;;17.00;80.30;;;;;;5013528;28;20018;-63
2022/05/05 02:19:20;;;;;;;23.42;20.73;;;17.00;79.70;;;;;;5013717;28;20387;-63
2022/05/05 02:21:45;;;;;;;23.63;20.63;;;16.90;79.80;;;;;;5013775;28;20474;-61
2022/05/05 02:24:11;;;;;;;24.90;21.00;;;16.90;80.10;;;;;;5013523;28;20037;-65
2022/05/05 02:26:36;;;;;;;24.98;20.23;;;17.00;79.90;;;;;;5013344;28;20033;-64
2022/05/05 02:29:02;;;;;;;27.83;20.98;;;16.90;80.00;;;;;;5013186;28;20495;-59
2022/05/05 02:31:28;;;;;;;25.67;20.67;;;16.90;79.50;;;;;;5013266;28;20469;-60
2022/05/05 02:33:53;;;;;;;29.08;21.85;;;16.90;79.60;;;;;;5013374;28;20034;-64
2022/05/05 02:39:03;;;;;;;25.08;21.30;;;16.90;78.70;;;;;;5013404;28;20415;-64
2022/05/05 02:41:29;;;;;;;23.65;20.23;;;16.80;79.30;;;;;;5012949;28;20018;-63
2022/05/05 02:43:54;;;;;;;27.65;20.65;;;16.90;79.00;;;;;;5013174;28;20100;-63
2022/05/05 02:46:20;;;;;;;23.67;20.75;;;16.90;78.50;;;;;;5013425;28;20018;-64
2022/05/05 02:48:45;;;;;;;26.33;20.20;;;16.80;78.80;;;;;;5013028;28;20022;-61
2022/05/05 02:51:11;;;;;;;25.88;20.30;;;16.80;79.40;;;;;;5013561;28;20052;-64
2022/05/05 02:56:21;;;;;;;23.40;20.05;;;16.90;79.40;;;;;;5013572;28;20442;-64
2022/05/05 02:58:46;;;;;;;28.73;20.30;;;16.90;78.90;;;;;;5012685;28;20038;-59
2022/05/05 03:01:12;;;;;;;21.30;18.95;;;16.80;79.10;;;;;;5013270;28;20026;-60
2022/05/05 03:03:38;;;;;;;22.30;19.35;;;16.80;79.10;;;;;;5013227;28;20022;-61
2022/05/05 03:06:03;;;;;;;24.25;18.80;;;16.80;79.20;;;;;;5012976;28;20144;-64
2022/05/05 03:08:29;;;;;;;20.35;18.10;;;16.80;78.30;;;;;;5012814;28;20097;-64
2022/05/05 03:10:54;;;;;;;19.98;17.83;;;16.80;78.20;;;;;;5013079;28;20391;-62
2022/05/05 03:13:20;;;;;;;23.42;18.80;;;16.80;78.00;;;;;;5013113;28;20463;-61
2022/05/05 03:15:46;;;;;;;22.00;18.58;;;16.80;78.60;;;;;;5012983;28;20485;-61
2022/05/05 03:18:11;;;;;;;20.42;18.23;;;16.80;78.30;;;;;;5013063;28;20022;-64
2022/05/05 03:20:37;;;;;;;22.38;17.38;;;16.80;78.20;;;;;;5015909;28;20030;-65
2022/05/05 03:23:03;;;;;;;21.90;17.25;;;16.70;78.80;;;;;;5016887;28;20053;-65
2022/05/05 03:25:28;;;;;;;20.63;16.40;;;16.70;78.70;;;;;;5016595;28;20061;-63
2022/05/05 03:27:54;;;;;;;24.95;18.17;;;16.70;78.10;;;;;;5016839;28;20105;-65
2022/05/05 03:30:19;;;;;;;18.58;15.57;;;16.80;77.70;;;;;;5016828;28;20040;-64
2022/05/05 03:32:45;;;;;;;33.47;18.58;;;16.70;77.60;;;;;;5016630;28;20085;-62
2022/05/05 03:35:11;;;;;;;22.48;16.85;;;16.70;77.40;;;;;;5016747;28;20025;-59
2022/05/05 03:37:36;;;;;;;23.23;17.35;;;16.70;77.60;;;;;;5016700;28;20054;-64
2022/05/05 03:40:02;;;;;;;24.75;17.77;;;16.70;77.00;;;;;;5016341;28;20030;-63
2022/05/05 03:42:28;;;;;;;22.02;17.60;;;16.80;77.10;;;;;;5016600;28;20050;-64
2022/05/05 03:44:54;;;;;;;19.83;17.33;;;16.70;76.90;;;;;;5016440;28;20080;-60
2022/05/05 03:47:20;;;;;;;20.58;17.30;;;16.70;76.90;;;;;;5016969;28;20455;-59
2022/05/05 03:49:45;;;;;;;21.90;17.98;;;16.80;77.30;;;;;;5017113;28;20060;-61
2022/05/05 03:52:11;;;;;;;23.63;18.98;;;16.80;77.20;;;;;;5016751;28;20030;-60
2022/05/05 03:54:37;;;;;;;22.33;19.50;;;16.70;77.20;;;;;;5016170;28;20451;-59
2022/05/05 03:57:03;;;;;;;21.10;18.75;;;16.70;77.40;;;;;;5016076;28;20029;-59
2022/05/05 03:59:28;;;;;;;22.23;18.33;;;16.70;77.50;;;;;;5015991;28;20058;-59
2022/05/05 04:01:54;;;;;;;25.60;18.63;;;16.70;77.50;;;;;;5016442;28;20025;-58
2022/05/05 04:04:20;;;;;;;22.13;18.33;;;16.70;77.60;;;;;;5016072;28;20467;-59
2022/05/05 04:06:46;;;;;;;21.50;18.15;;;16.70;77.90;;;;;;5016064;28;20027;-60
2022/05/05 04:09:11;;;;;;;25.23;19.45;;;16.70;77.90;;;;;;5015711;28;20033;-59
2022/05/05 04:11:38;;;;;;;23.98;19.90;;;16.70;78.10;;;;;;5016150;28;20022;-60
2022/05/05 04:14:04;;;;;;;24.45;19.77;;;16.70;77.90;;;;;;5015828;28;20026;-58
2022/05/05 04:16:31;;;;;;;27.02;20.13;;;16.70;77.80;;;;;;5016009;28;20032;-59
2022/05/05 04:18:58;;;;;;;24.83;18.88;;;16.70;78.00;;;;;;5015713;28;20033;-58
2022/05/05 04:21:23;;;;;;;24.27;20.17;;;16.70;78.00;;;;;;5016128;28;20030;-60
2022/05/05 04:23:50;;;;;;;23.70;20.90;;;16.70;78.20;;;;;;5015433;28;20533;-64
2022/05/05 04:26:16;;;;;;;24.48;20.80;;;16.70;78.40;;;;;;5015621;28;20076;-63
2022/05/05 04:28:44;;;;;;;25.77;20.73;;;16.60;78.40;;;;;;5015638;28;20467;-59
2022/05/05 04:31:15;;;;;;;25.30;21.00;;;16.70;78.60;;;;;;5014739;28;20133;-59
2022/05/05 04:33:41;;;;;;;27.75;23.13;;;16.70;78.80;;;;;;5014404;28;20030;-59
2022/05/05 04:36:07;;;;;;;32.30;22.05;;;16.70;78.80;;;;;;5015407;28;20037;-59
2022/05/05 04:38:33;;;;;;;30.80;23.70;;;16.70;78.90;;;;;;5015171;28;20442;-59
2022/05/05 04:40:59;;;;;;;26.30;22.95;;;16.70;79.00;;;;;;5015277;28;20051;-59
2022/05/05 04:43:25;;;;;;;27.10;22.95;;;16.60;79.00;;;;;;5015468;28;20468;-64
2022/05/05 04:45:50;;;;;;;29.27;24.42;;;16.60;79.20;;;;;;5015198;28;20068;-59
2022/05/05 04:48:16;;;;;;;28.20;22.85;;;16.60;79.40;;;;;;5015335;28;20039;-65
2022/05/05 04:50:41;;;;;;;29.40;22.90;;;16.60;79.70;;;;;;5015151;28;20101;-62
2022/05/05 04:53:07;;;;;;;28.42;23.60;;;16.70;79.80;;;;;;5015054;28;20026;-64
2022/05/05 04:55:33;;;;;;;31.90;25.27;;;16.70;79.90;;;;;;5014977;28;20026;-60
2022/05/05 04:57:59;;;;;;;27.27;22.25;;;16.70;79.90;;;;;;5014950;28;20118;-63
2022/05/05 05:00:24;;;;;;;31.33;25.10;;;16.60;79.90;;;;;;5013152;28;20037;-60
2022/05/05 05:02:50;;;;;;;28.23;23.42;;;16.70;80.20;;;;;;5005736;28;20034;-63
2022/05/05 05:05:16;;;;;;;31.10;25.02;;;16.70;80.30;;;;;;4994222;28;20034;-58
2022/05/05 05:07:41;;;;;;;31.67;25.60;;;16.70;80.50;;;;;;4993230;28;20026;-59
2022/05/05 05:10:07;;;;;;;31.55;25.23;;;16.60;81.20;;;;;;4995122;28;20483;-59
2022/05/05 05:12:33;;;;;;;30.92;26.05;;;16.60;80.70;;;;;;4994390;28;20465;-65
2022/05/05 05:14:59;;;;;;;34.35;26.77;;;16.70;80.80;;;;;;4995187;28;20045;-59
2022/05/05 05:17:25;;;;;;;32.40;26.60;;;16.70;80.80;;;;;;4995174;28;20110;-60
2022/05/05 05:19:50;;;;;;;34.72;25.13;;;16.70;80.90;;;;;;4995139;28;20121;-60
2022/05/05 05:22:16;;;;;;;29.30;26.13;;;16.70;81.30;;;;;;4994774;28;20107;-58
2022/05/05 05:24:41;;;;;;;29.92;26.13;;;16.70;81.50;;;;;;4995106;28;20491;-59
2022/05/05 05:27:07;;;;;;;29.13;25.92;;;16.70;81.70;;;;;;4994717;28;20088;-59
2022/05/05 05:29:32;;;;;;;32.17;26.50;;;16.70;81.90;;;;;;5000157;28;20030;-58
2022/05/05 05:31:58;;;;;;;29.60;25.90;;;16.70;82.30;;;;;;5009048;28;20509;-59
2022/05/05 05:34:24;;;;;;;32.38;26.88;;;16.70;82.50;;;;;;5011323;28;20109;-62
2022/05/05 05:36:49;;;;;;;59.78;16.60;;;16.70;82.50;;;;;;5010416;28;20029;-63
2022/05/05 05:39:17;;;;;;;23.65;15.88;;;16.70;80.50;;;;;;5015043;28;20442;-62
2022/05/05 05:41:43;;;;;;;14.32;9.98;;;16.80;79.80;;;;;;5009617;28;20022;-61
2022/05/05 05:44:08;;;;;;;14.45;11.73;;;16.70;79.40;;;;;;5005452;28;20060;-59
2022/05/05 05:46:34;;;;;;;24.77;17.42;;;16.70;79.40;;;;;;5012722;28;20089;-63
2022/05/05 05:48:59;;;;;;;11.50;10.38;;;16.70;81.00;;;;;;5011073;28;20022;-59
2022/05/05 05:51:25;;;;;;;13.07;9.43;;;16.70;79.60;;;;;;5005648;28;20492;-60
2022/05/05 05:53:51;;;;;;;20.60;17.63;;;16.80;79.00;;;;;;4999500;28;20537;-58
2022/05/05 05:56:17;;;;;;;29.50;23.80;;;16.80;79.70;;;;;;5013713;28;20037;-58
2022/05/05 05:58:42;;;;;;;23.83;19.23;;;16.80;80.90;;;;;;5014011;28;20084;-58
2022/05/05 06:01:08;;;;;;;22.58;18.35;;;16.80;82.20;;;;;;5003889;28;20033;-59
2022/05/05 06:06:19;;;;;;;23.60;20.15;;;16.80;81.30;;;;;;5011288;28;20095;-62
2022/05/05 06:08:45;;;;;;;34.28;27.70;;;16.80;82.00;;;;;;5017784;28;20018;-59
2022/05/05 06:11:11;;;;;;;28.35;23.45;;;16.80;84.20;;;;;;5010755;28;20018;-59
2022/05/05 06:13:37;;;;;;;28.27;24.98;;;16.90;83.50;;;;;;5008693;28;20029;-64
2022/05/05 06:16:04;;;;;;;29.15;25.38;;;16.90;84.50;;;;;;5005078;28;20041;-58
2022/05/05 06:18:30;;;;;;;29.60;24.02;;;16.90;85.20;;;;;;5007948;28;20475;-59
2022/05/05 06:20:56;;;;;;;31.95;24.52;;;16.90;85.70;;;;;;5011916;28;20079;-59
2022/05/05 06:23:22;;;;;;;28.45;23.40;;;17.00;85.90;;;;;;5011971;28;20383;-59
2022/05/05 06:25:47;;;;;;;23.60;19.73;;;17.00;85.60;;;;;;5009954;28;20030;-61
2022/05/05 06:28:13;;;;;;;26.55;21.25;;;17.00;84.40;;;;;;5023005;28;20025;-58
2022/05/05 06:30:38;;;;;;;25.55;20.98;;;17.00;84.20;;;;;;5021223;28;20112;-59
2022/05/05 06:33:04;;;;;;;25.92;20.33;;;17.00;84.40;;;;;;5013574;28;20064;-59
2022/05/05 06:35:30;;;;;;;20.50;18.35;;;17.10;84.30;;;;;;5013238;28;20026;-58
2022/05/05 06:37:55;;;;;;;21.10;18.85;;;17.10;84.50;;;;;;5013372;28;20048;-59
2022/05/05 06:40:21;;;;;;;21.27;18.98;;;17.10;84.20;;;;;;5013214;28;20057;-63
2022/05/05 06:42:48;;;;;;;23.35;18.85;;;17.10;84.60;;;;;;5012772;28;20075;-64
2022/05/05 06:45:14;;;;;;;22.23;17.48;;;17.10;84.40;;;;;;5013370;28;20033;-60
2022/05/05 06:47:40;;;;;;;20.95;17.65;;;17.10;84.30;;;;;;5012608;28;20026;-64
2022/05/05 06:50:07;;;;;;;17.95;16.05;;;17.20;84.30;;;;;;5007074;28;20033;-64
2022/05/05 06:52:32;;;;;;;17.00;15.20;;;17.20;84.40;;;;;;4993563;28;20038;-64
2022/05/05 06:54:58;;;;;;;17.77;15.52;;;17.20;84.70;;;;;;4993071;28;20026;-61
2022/05/05 06:57:24;;;;;;;17.70;14.38;;;17.20;84.70;;;;;;5006006;28;20030;-60
2022/05/05 06:59:49;;;;;;;16.08;13.68;;;17.30;84.60;;;;;;5012743;28;20057;-64
2022/05/05 07:02:15;;;;;;;16.83;15.00;;;17.30;84.50;;;;;;5010891;28;20468;-62
2022/05/05 07:07:25;;;;;;;21.58;16.17;;;17.30;84.80;;;;;;5013742;28;20037;-63
2022/05/05 07:12:34;;;;;;;17.67;15.85;;;17.30;84.80;;;;;;5011154;28;20040;-59
2022/05/05 07:15:00;;;;;;;18.65;15.38;;;17.40;84.70;;;;;;5012258;28;20038;-62
2022/05/05 07:17:26;;;;;;;21.48;16.05;;;17.40;84.90;;;;;;5009570;28;20120;-64
2022/05/05 07:19:52;;;;;;;18.58;16.75;;;17.40;85.20;;;;;;5004290;28;20027;-61
2022/05/05 07:22:18;;;;;;;20.77;18.48;;;17.40;84.90;;;;;;4996528;28;20022;-64
2022/05/05 07:24:44;;;;;;;24.30;20.50;;;17.40;84.90;;;;;;5020566;28;20029;-60
2022/05/05 07:27:10;;;;;;;23.45;20.23;;;17.40;85.10;;;;;;5012686;28;20030;-63
2022/05/05 07:29:37;;;;;;;21.88;19.40;;;17.40;84.80;;;;;;5012810;28;20092;-60
2022/05/05 07:32:04;;;;;;;28.52;21.17;;;17.50;85.00;;;;;;5009619;28;20526;-62
2022/05/05 07:34:30;;;;;;;26.08;21.77;;;17.40;85.10;;;;;;4994825;28;20045;-60
2022/05/05 07:36:55;;;;;;;23.05;20.55;;;17.50;85.20;;;;;;5012868;28;20025;-64
2022/05/05 07:39:22;;;;;;;25.02;22.15;;;17.50;84.80;;;;;;4995188;28;20488;-60
2022/05/05 07:41:48;;;;;;;24.10;21.50;;;17.50;85.50;;;;;;4992262;28;20022;-64
2022/05/05 07:44:15;;;;;;;25.02;21.80;;;17.50;85.50;;;;;;4993086;28;20037;-64
2022/05/05 07:46:41;;;;;;;23.52;20.58;;;17.50;85.40;;;;;;4992943;28;20065;-64
2022/05/05 07:49:07;;;;;;;24.30;21.80;;;17.50;85.10;;;;;;5002059;28;20018;-61
2022/05/05 07:51:34;;;;;;;24.65;22.08;;;17.60;85.20;;;;;;5012923;28;20029;-60
2022/05/05 07:56:45;;;;;;;24.88;22.25;;;17.60;85.20;;;;;;5012279;28;20435;-60
2022/05/05 07:59:11;;;;;;;27.85;24.75;;;17.60;85.10;;;;;;5011426;28;20037;-63
2022/05/05 08:01:38;;;;;;;27.95;24.00;;;17.60;86.00;;;;;;5012287;28;20104;-64
2022/05/05 08:04:04;;;;;;;27.13;23.38;;;17.60;85.60;;;;;;5012104;28;20034;-60
2022/05/05 08:06:33;;;;;;;27.38;23.50;;;17.60;85.60;;;;;;5011282;28;20025;-62
2022/05/05 08:08:58;;;;;;;25.00;22.33;;;17.60;85.40;;;;;;5010241;28;20456;-64
2022/05/05 08:11:24;;;;;;;26.73;24.00;;;17.70;85.20;;;;;;5014940;28;20037;-60
2022/05/05 08:13:50;;;;;;;26.75;24.02;;;17.60;85.10;;;;;;5015662;28;20053;-61
2022/05/05 08:16:16;;;;;;;32.50;26.83;;;17.70;85.20;;;;;;5015625;28;20033;-64
2022/05/05 08:18:42;;;;;;;28.65;25.55;;;17.70;85.30;;;;;;5007741;28;20034;-59
2022/05/05 08:21:10;;;;;;;27.02;24.23;;;17.70;85.20;;;;;;4996565;28;20026;-64
2022/05/05 08:23:37;;;;;;;29.40;26.55;;;17.70;84.90;;;;;;4996759;28;20019;-63
2022/05/05 08:28:47;;;;;;;25.55;23.02;;;17.70;85.10;;;;;;5015803;28;20071;-62
2022/05/05 08:31:13;;;;;;;26.05;23.38;;;17.80;85.10;;;;;;5015030;28;20112;-64
2022/05/05 08:33:38;;;;;;;29.08;26.05;;;17.80;85.10;;;;;;5015059;28;20392;-63
2022/05/05 08:36:05;;;;;;;29.60;26.70;;;17.80;85.20;;;;;;5003414;28;20030;-59
2022/05/05 08:38:32;;;;;;;29.35;26.33;;;17.80;84.50;;;;;;5015287;28;20025;-64
2022/05/05 08:40:58;;;;;;;28.52;25.55;;;17.80;84.30;;;;;;5015238;28;20068;-63
2022/05/05 08:43:24;;;;;;;25.70;23.10;;;17.80;84.60;;;;;;5015518;28;20061;-61
2022/05/05 08:45:50;;;;;;;26.65;23.80;;;17.80;84.50;;;;;;5003886;28;20062;-63
2022/05/05 08:48:17;;;;;;;26.63;23.75;;;17.90;84.60;;;;;;5013944;28;20037;-64
2022/05/05 08:50:46;;;;;;;26.83;24.10;;;17.90;84.40;;;;;;5007549;28;20064;-59
2022/05/05 08:53:17;;;;;;;25.00;22.48;;;17.90;84.30;;;;;;5010439;28;20026;-61
2022/05/05 08:55:46;;;;;;;28.55;22.08;;;17.90;84.10;;;;;;4994145;28;20491;-63
2022/05/05 08:58:13;;;;;;;27.52;22.52;;;17.90;84.30;;;;;;5000371;28;20506;-60
2022/05/05 09:00:38;;;;;;;25.17;22.63;;;17.90;84.30;;;;;;5013859;28;20038;-64
2022/05/05 09:03:04;;;;;;;24.38;21.88;;;17.90;84.10;;;;;;5014817;28;20045;-63
2022/05/05 09:05:42;;;;;;;27.58;24.70;;;18.00;84.00;;;;;;5006193;28;20041;-64
2022/05/05 09:08:24;;;;;;;26.13;23.52;;;18.00;83.90;;;;;;5013010;28;20076;-64
2022/05/05 09:10:51;;;;;;;26.63;23.85;;;18.00;84.20;;;;;;5003540;28;20459;-64
2022/05/05 09:13:28;;;;;;;28.33;25.42;;;18.10;84.20;;;;;;5012749;28;20026;-59
2022/05/05 09:15:54;;;;;;;30.63;27.63;;;18.10;84.00;;;;;;5018867;28;20026;-63
2022/05/05 09:18:21;;;;;;;28.77;25.88;;;18.10;84.10;;;;;;5012091;28;20092;-62
2022/05/05 09:20:49;;;;;;;27.73;23.55;;;18.10;83.90;;;;;;5008484;28;20106;-63
2022/05/05 09:23:27;;;;;;;43.88;22.77;;;18.10;84.10;;;;;;5008554;28;20028;-62
2022/05/05 09:25:52;;;;;;;30.92;26.35;;;18.10;83.60;;;;;;5014174;28;20388;-63
2022/05/05 09:28:23;;;;;;;37.25;33.05;;;18.20;84.30;;;;;;5014247;28;20483;-65
2022/05/05 09:30:51;;;;;;;33.42;30.00;;;18.20;84.10;;;;;;5005207;28;20034;-64
2022/05/05 09:33:35;;;;;;;32.65;23.38;;;18.20;84.00;;;;;;5008901;28;20049;-59
2022/05/05 09:36:12;;;;;;;27.63;24.27;;;18.20;84.20;;;;;;5009421;28;20018;-59
2022/05/05 09:38:55;;;;;;;31.33;25.08;;;18.30;83.90;;;;;;5014119;28;20072;-63
2022/05/05 09:41:25;;;;;;;35.40;24.92;;;18.30;83.80;;;;;;5007465;28;20041;-60
2022/05/05 09:43:53;;;;;;;33.50;27.88;;;18.30;83.90;;;;;;5011916;28;20021;-62
2022/05/05 09:46:27;;;;;;;29.70;26.75;;;18.30;83.60;;;;;;5010663;28;20107;-59
2022/05/05 09:49:03;;;;;;;32.15;28.85;;;18.30;83.40;;;;;;5011916;28;20024;-64
2022/05/05 09:51:28;;;;;;;32.92;29.73;;;18.30;83.20;;;;;;5005041;28;20030;-60
2022/05/05 09:59:31;;;;;;;26.98;24.20;;;18.40;82.10;;;;;;5012716;28;20132;-63
2022/05/05 10:02:04;;;;;;;25.73;23.13;;;18.40;81.70;;;;;;5009615;28;20076;-59
2022/05/05 10:04:35;;;;;;;26.92;23.60;;;18.50;82.00;;;;;;5010729;28;20034;-60
2022/05/05 10:07:02;;;;;;;22.95;20.60;;;18.50;81.80;;;;;;4993771;28;20093;-62
2022/05/05 10:09:28;;;;;;;24.92;22.05;;;18.50;81.00;;;;;;4993618;28;20479;-63
2022/05/05 10:11:55;;;;;;;25.30;20.70;;;18.60;81.90;;;;;;4993355;28;20053;-61
2022/05/05 10:14:20;;;;;;;22.88;20.70;;;18.60;81.70;;;;;;4993846;28;20380;-59
2022/05/05 10:16:46;;;;;;;25.17;20.38;;;18.50;81.50;;;;;;4999174;28;20029;-63
2022/05/05 10:19:11;;;;;;;19.73;17.85;;;18.60;81.50;;;;;;5013430;28;20087;-59
2022/05/05 10:21:59;;;;;;;18.95;17.13;;;18.60;80.20;;;;;;5013092;28;20471;-62
2022/05/05 10:24:43;;;;;;;20.23;17.95;;;18.60;79.00;;;;;;5013479;28;20037;-63
2022/05/05 10:27:10;;;;;;;19.33;17.33;;;18.70;80.40;;;;;;5010440;28;20086;-61
2022/05/05 10:29:40;;;;;;;20.10;18.08;;;18.70;80.70;;;;;;5012311;28;20112;-56
2022/05/05 10:32:11;;;;;;;20.58;17.13;;;18.70;80.50;;;;;;5006351;28;20034;-56
2022/05/05 10:34:41;;;;;;;23.20;20.98;;;18.80;80.50;;;;;;4993187;28;20392;-61
2022/05/05 10:37:09;;;;;;;24.00;21.73;;;18.70;79.90;;;;;;4993219;28;20079;-55
2022/05/05 10:39:50;;;;;;;18.88;15.95;;;18.70;79.30;;;;;;4993181;28;20045;-60
2022/05/05 10:42:16;;;;;;;22.33;20.10;;;18.80;79.90;;;;;;4993086;28;20037;-61
2022/05/05 10:45:07;;;;;;;23.38;21.05;;;18.80;80.00;;;;;;4993253;28;20462;-61
2022/05/05 10:48:01;;;;;;;20.80;18.75;;;18.80;79.60;;;;;;4993321;28;20404;-62
2022/05/05 10:50:30;;;;;;;20.02;18.02;;;18.80;79.50;;;;;;4993144;28;20062;-64
2022/05/05 10:52:59;;;;;;;20.35;18.55;;;18.80;79.80;;;;;;4993325;28;20106;-65
2022/05/05 10:55:30;;;;;;;20.33;18.33;;;18.90;79.70;;;;;;5007863;28;20096;-64
2022/05/05 10:57:56;;;;;;;21.23;19.13;;;18.90;79.60;;;;;;5011943;28;20117;-65
2022/05/05 11:00:23;;;;;;;19.38;17.67;;;18.90;79.50;;;;;;5011242;28;20101;-64
2022/05/05 11:02:58;;;;;;;18.50;16.83;;;18.90;79.40;;;;;;5000719;28;20395;-64
2022/05/05 11:05:30;;;;;;;18.58;16.85;;;19.00;79.30;;;;;;4994696;28;20026;-63
2022/05/05 11:08:14;;;;;;;20.88;19.05;;;18.90;79.20;;;;;;5012494;28;20442;-63
2022/05/05 11:13:41;;;;;;;18.23;16.42;;;19.00;78.80;;;;;;5012546;28;20033;-62
2022/05/05 11:22:24;;;;;;;18.27;16.48;;;19.00;78.40;;;;;;5012248;28;20065;-58
2022/05/05 11:24:52;;;;;;;19.55;17.63;;;19.00;78.00;;;;;;5012118;28;20062;-63
2022/05/05 11:27:22;;;;;;;22.33;20.08;;;19.10;77.90;;;;;;5011963;28;20025;-60
2022/05/05 11:29:50;;;;;;;23.40;21.20;;;19.10;78.40;;;;;;5012144;28;20026;-62
2022/05/05 11:32:17;;;;;;;22.60;20.33;;;19.10;78.00;;;;;;5011268;28;20030;-60
2022/05/05 11:34:45;;;;;;;23.17;20.98;;;19.10;77.70;;;;;;5008322;28;20022;-60
2022/05/05 11:37:11;;;;;;;24.38;21.85;;;19.20;77.40;;;;;;4999261;28;20379;-61
2022/05/05 11:39:37;;;;;;;20.40;18.30;;;19.20;77.40;;;;;;5012122;28;20058;-62
2022/05/05 11:42:10;;;;;;;23.08;20.67;;;19.20;77.70;;;;;;5015347;28;20495;-62
2022/05/05 11:44:41;;;;;;;22.75;20.55;;;19.20;77.60;;;;;;5016187;28;20033;-60
2022/05/05 11:47:13;;;;;;;23.90;21.52;;;19.20;77.50;;;;;;5015221;28;20037;-61
2022/05/05 11:49:40;;;;;;;21.77;19.50;;;19.20;76.90;;;;;;5016213;28;20144;-62
2022/05/05 11:52:06;;;;;;;19.80;17.70;;;19.20;77.50;;;;;;5015228;28;20022;-60
2022/05/05 11:54:33;;;;;;;19.98;17.85;;;19.20;77.80;;;;;;5015427;28;20049;-62
2022/05/05 11:57:00;;;;;;;20.40;18.40;;;19.20;77.30;;;;;;5015487;28;20026;-61
2022/05/05 12:02:13;;;;;;;19.98;18.13;;;19.30;75.60;;;;;;5016207;28;20033;-57
2022/05/05 12:04:41;;;;;;;17.88;16.10;;;19.20;76.40;;;;;;5015228;28;20494;-60
2022/05/05 12:07:09;;;;;;;16.60;15.00;;;19.30;76.70;;;;;;5014612;28;20168;-56
2022/05/05 12:09:36;;;;;;;17.88;15.80;;;19.30;76.70;;;;;;4995436;28;20027;-57
2022/05/05 12:12:30;;;;;;;16.65;14.93;;;19.30;77.00;;;;;;5001750;28;20025;-59
2022/05/05 12:15:01;;;;;;;16.60;14.90;;;19.30;77.10;;;;;;5010363;28;20044;-61
2022/05/05 12:17:43;;;;;;;16.73;15.00;;;19.30;77.50;;;;;;5014916;28;20070;-63
2022/05/05 12:20:11;;;;;;;16.13;14.18;;;19.30;77.70;;;;;;5007555;28;20522;-63
2022/05/05 12:22:41;;;;;;;16.25;14.65;;;19.30;78.30;;;;;;5015170;28;20026;-63
2022/05/05 12:25:14;;;;;;;16.55;14.05;;;19.40;78.50;;;;;;5014204;28;20026;-63
2022/05/05 12:27:43;;;;;;;15.88;13.57;;;19.40;78.80;;;;;;5022393;28;20037;-63
2022/05/05 12:30:09;;;;;;;15.27;13.77;;;19.40;78.60;;;;;;5015582;28;20391;-63
2022/05/05 12:32:34;;;;;;;15.65;13.85;;;19.40;79.00;;;;;;5012543;28;20022;-63
2022/05/05 12:35:11;;;;;;;20.45;14.63;;;19.40;79.50;;;;;;5018380;28;20041;-63
2022/05/05 12:37:38;;;;;;;16.42;13.48;;;19.40;79.30;;;;;;5015179;28;20029;-63
2022/05/05 12:40:08;;;;;;;15.98;14.05;;;19.40;79.50;;;;;;5014746;28;20044;-63
2022/05/05 12:42:43;;;;;;;15.35;12.25;;;19.40;80.00;;;;;;5012364;28;20018;-62
2022/05/05 12:45:13;;;;;;;14.95;13.40;;;19.40;79.50;;;;;;5014722;28;20041;-60
2022/05/05 12:47:41;;;;;;;15.38;13.77;;;19.40;80.20;;;;;;5008465;28;20092;-62
2022/05/05 12:50:25;;;;;;;18.33;16.33;;;19.40;80.70;;;;;;5013075;28;20060;-62
2022/05/05 13:01:02;;;;;;;21.45;14.88;;;19.50;81.80;;;;;;5014140;28;20056;-66
2022/05/05 13:03:30;;;;;;;19.63;15.48;;;19.60;83.70;;;;;;5013060;28;20022;-64
2022/05/05 13:05:55;;;;;;;20.75;14.52;;;19.50;85.90;;;;;;5008791;28;20030;-64
2022/05/05 13:08:21;;;;;;;18.02;14.32;;;19.50;86.50;;;;;;5011609;28;20036;-65
2022/05/05 13:10:47;;;;;;;15.40;13.73;;;19.50;86.90;;;;;;5012495;28;20598;-66
2022/05/05 13:13:13;;;;;;;19.92;15.48;;;19.50;88.20;;;;;;5014728;28;20485;-65
2022/05/05 13:15:39;;;;;;;17.85;14.40;;;19.50;88.80;;;;;;5014173;28;20022;-65
2022/05/05 13:18:05;;;;;;;14.93;12.85;;;19.50;89.30;;;;;;5011173;28;20482;-65
2022/05/05 13:20:31;;;;;;;14.85;13.13;;;19.50;89.30;;;;;;5015662;28;20384;-62